createdAt,value
2019-02-22T00:01:36.498Z,43.00
2019-02-22T00:04:40.132Z,57.27
2019-02-22T00:07:43.283Z,51.90
2019-02-22T00:10:46.318Z,46.00
2019-02-22T00:13:49.277Z,50.63
2019-02-22T00:16:52.830Z,56.30
2019-02-22T00:19:55.784Z,51.47
2019-02-22T00:22:59.016Z,55.37
2019-02-22T00:26:01.961Z,52.77
2019-02-22T00:29:05.347Z,51.17
2019-02-22T00:32:08.317Z,59.50
2019-02-22T00:35:11.370Z,47.53
2019-02-22T00:38:14.638Z,52.60
2019-02-22T00:41:18.378Z,51.70
2019-02-22T00:44:21.378Z,60.17
2019-02-22T00:47:24.653Z,53.07
2019-02-22T00:50:27.812Z,52.87
2019-02-22T00:53:30.787Z,54.23
2019-02-22T00:56:34.036Z,51.97
2019-02-22T00:59:37.309Z,54.37
2019-02-22T01:02:40.258Z,56.60
2019-02-22T01:05:43.473Z,52.53
2019-02-22T01:08:46.980Z,56.50
2019-02-22T01:11:49.915Z,53.20
2019-02-22T01:14:53.187Z,50.63
2019-02-22T01:17:56.433Z,45.27
2019-02-22T01:20:59.416Z,41.03
2019-02-22T01:24:03.049Z,36.70
2019-02-22T01:27:07.092Z,36.83
2019-02-22T01:30:10.154Z,31.93
2019-02-22T01:33:13.192Z,34.67
2019-02-22T01:36:16.424Z,34.60
2019-02-22T01:39:19.378Z,36.00
2019-02-22T01:42:22.668Z,34.10
2019-02-22T01:45:25.937Z,40.67
2019-02-22T01:48:29.186Z,38.77
2019-02-22T01:51:32.158Z,36.10
2019-02-22T01:54:35.401Z,38.50
2019-02-22T01:57:38.640Z,42.73
2019-02-22T02:00:41.606Z,41.07
2019-02-22T02:03:44.547Z,43.83
2019-02-22T02:06:47.711Z,36.83
2019-02-22T02:09:50.646Z,49.40
2019-02-22T02:12:53.948Z,42.77
2019-02-22T02:15:57.212Z,45.63
2019-02-22T02:19:00.165Z,35.17
2019-02-22T02:22:03.492Z,36.13
2019-02-22T02:25:07.804Z,44.67
2019-02-22T02:28:10.763Z,42.70
2019-02-22T02:31:14.680Z,42.67
2019-02-22T02:34:17.927Z,45.63
2019-02-22T02:37:21.191Z,42.77
2019-02-22T02:40:24.436Z,40.17
2019-02-22T02:43:28.001Z,48.13
2019-02-22T02:46:31.226Z,51.03
2019-02-22T02:49:34.156Z,40.73
2019-02-22T02:52:37.779Z,47.17
2019-02-22T02:55:41.026Z,43.27
2019-02-22T02:58:43.984Z,48.50
2019-02-22T03:01:46.930Z,42.77
2019-02-22T03:04:50.192Z,61.93
2019-02-22T03:07:53.602Z,44.13
2019-02-22T03:10:56.651Z,37.63
2019-02-22T03:13:59.879Z,50.20
2019-02-22T03:17:02.931Z,47.80
2019-02-22T03:20:06.034Z,37.27
2019-02-22T03:23:09.582Z,43.97
2019-02-22T03:26:12.524Z,45.53
2019-02-22T03:29:15.799Z,34.40
2019-02-22T03:32:18.762Z,44.00
2019-02-22T03:35:22.461Z,43.07
2019-02-22T03:38:25.707Z,40.27
2019-02-22T03:41:33.050Z,41.47
2019-02-22T03:44:33.829Z,37.40
2019-02-22T03:47:36.766Z,42.03
2019-02-22T03:50:40.358Z,40.10
2019-02-22T03:53:47.295Z,39.57
2019-02-22T03:56:50.592Z,38.03
2019-02-22T03:59:53.662Z,43.23
2019-02-22T04:02:56.592Z,34.43
2019-02-22T04:05:59.542Z,41.73
2019-02-22T04:09:04.633Z,39.37
2019-02-22T04:12:08.673Z,42.67
2019-02-22T04:15:11.641Z,39.63
2019-02-22T04:18:14.829Z,39.10
2019-02-22T04:21:18.092Z,44.53
2019-02-22T04:24:21.733Z,34.00
2019-02-22T04:27:24.664Z,35.57
2019-02-22T04:30:27.895Z,37.70
2019-02-22T04:33:30.828Z,34.73
2019-02-22T04:36:34.098Z,36.17
2019-02-22T04:39:37.367Z,38.83
2019-02-22T04:42:40.624Z,30.27
2019-02-22T04:45:43.896Z,35.90
2019-02-22T04:48:47.120Z,29.17
2019-02-22T04:51:50.959Z,34.57
2019-02-22T04:54:54.486Z,30.90
2019-02-22T04:57:57.760Z,31.90
2019-02-22T05:01:00.721Z,30.97
2019-02-22T05:04:03.641Z,34.43
2019-02-22T05:07:06.596Z,30.53
2019-02-22T05:10:09.804Z,30.77
2019-02-22T05:13:12.759Z,24.37
2019-02-22T05:16:15.719Z,28.47
2019-02-22T05:19:19.238Z,33.47
2019-02-22T05:22:22.287Z,31.13
2019-02-22T05:25:25.827Z,33.93
2019-02-22T05:28:28.790Z,28.40
2019-02-22T05:31:32.265Z,30.97
2019-02-22T05:34:35.808Z,27.40
2019-02-22T05:37:38.765Z,31.60
2019-02-22T05:40:42.315Z,31.07
2019-02-22T05:43:45.596Z,33.07
2019-02-22T05:46:59.679Z,30.90
2019-02-22T05:49:53.982Z,37.47
2019-02-22T05:52:57.492Z,32.47
2019-02-22T05:56:00.738Z,48.57
2019-02-22T05:59:04.360Z,30.80
2019-02-22T06:02:07.330Z,32.03
2019-02-22T06:05:10.539Z,26.80
2019-02-22T06:08:13.825Z,27.87
2019-02-22T06:11:16.763Z,28.90
2019-02-22T06:14:19.722Z,33.60
2019-02-22T06:17:22.654Z,27.33
2019-02-22T06:20:25.949Z,30.53
2019-02-22T06:23:28.909Z,24.47
2019-02-22T06:26:31.959Z,26.50
2019-02-22T06:29:34.908Z,31.27
2019-02-22T06:32:38.177Z,29.10
2019-02-22T06:35:41.383Z,32.70
2019-02-22T06:38:46.585Z,29.83
2019-02-22T06:41:49.583Z,29.10
2019-02-22T06:44:52.908Z,28.30
2019-02-22T06:47:56.132Z,29.73
2019-02-22T06:50:59.092Z,28.40
2019-02-22T06:54:03.429Z,27.33
2019-02-22T06:57:06.678Z,29.70
2019-02-22T07:00:10.595Z,30.20
2019-02-22T07:03:13.528Z,32.60
2019-02-22T07:06:16.487Z,26.43
2019-02-22T07:09:19.431Z,29.03
2019-02-22T07:12:32.401Z,31.70
2019-02-22T07:15:35.689Z,35.70
2019-02-22T07:18:39.238Z,34.83
2019-02-22T07:21:52.164Z,25.67
2019-02-22T07:24:47.714Z,25.97
2019-02-22T07:27:50.693Z,31.40
2019-02-22T07:30:53.958Z,27.23
2019-02-22T07:33:56.920Z,26.27
2019-02-22T07:37:00.136Z,26.03
2019-02-22T07:40:03.209Z,26.47
2019-02-22T07:43:08.274Z,22.07
2019-02-22T07:46:11.697Z,26.20
2019-02-22T07:49:23.785Z,23.30
2019-02-22T07:52:26.731Z,19.00
2019-02-22T07:55:30.014Z,25.57
2019-02-22T07:58:32.989Z,23.37
2019-02-22T08:01:46.802Z,27.00
2019-02-22T08:04:40.908Z,24.17
2019-02-22T08:07:43.852Z,26.27
2019-02-22T08:10:46.807Z,35.70
2019-02-22T08:13:50.159Z,32.37
2019-02-22T08:16:53.467Z,46.00
2019-02-22T08:19:56.522Z,32.60
2019-02-22T08:22:59.849Z,46.97
2019-02-22T08:26:02.807Z,39.73
2019-02-22T08:29:05.817Z,45.70
2019-02-22T08:32:09.781Z,36.80
2019-02-22T08:35:12.747Z,46.43
2019-02-22T08:38:16.005Z,41.77
2019-02-22T08:41:19.241Z,43.80
2019-02-22T08:44:22.492Z,42.20
2019-02-22T08:47:25.460Z,49.10
2019-02-22T08:50:28.405Z,47.23
2019-02-22T08:53:31.626Z,47.70
2019-02-22T08:56:34.590Z,45.13
2019-02-22T08:59:37.744Z,52.27
2019-02-22T09:02:40.700Z,51.20
2019-02-22T09:05:43.722Z,58.77
2019-02-22T09:08:47.696Z,45.93
2019-02-22T09:11:50.975Z,56.17
2019-02-22T09:14:54.286Z,56.70
2019-02-22T09:17:58.529Z,45.30
2019-02-22T09:21:01.785Z,38.00
2019-02-22T09:24:04.752Z,39.50
2019-02-22T09:27:07.970Z,38.03
2019-02-22T09:30:11.240Z,30.70
2019-02-22T09:33:14.564Z,35.13
2019-02-22T09:36:18.500Z,36.20
2019-02-22T09:39:21.778Z,35.30
2019-02-22T09:42:24.723Z,32.23
2019-02-22T09:45:27.988Z,24.17
2019-02-22T09:48:31.285Z,31.47
2019-02-22T09:51:34.219Z,39.07
2019-02-22T09:54:37.179Z,34.50
2019-02-22T09:57:40.249Z,31.07
2019-02-22T10:00:43.565Z,31.63
2019-02-22T10:03:47.182Z,45.87
2019-02-22T10:06:50.163Z,45.97
2019-02-22T10:09:53.481Z,53.70
2019-02-22T10:12:56.421Z,47.53
2019-02-22T10:16:00.392Z,56.10
2019-02-22T10:19:04.349Z,49.13
2019-02-22T10:22:07.616Z,48.43
2019-02-22T10:25:12.205Z,47.47
2019-02-22T10:28:18.055Z,52.40
2019-02-22T10:31:20.450Z,46.10
2019-02-22T10:34:23.425Z,39.47
2019-02-22T10:37:26.390Z,36.20
2019-02-22T10:40:29.964Z,33.23
2019-02-22T10:43:33.792Z,40.40
2019-02-22T10:46:36.822Z,35.77
2019-02-22T10:49:40.343Z,34.80
2019-02-22T10:52:43.633Z,39.13
2019-02-22T10:55:46.585Z,38.10
2019-02-22T10:58:49.845Z,30.73
2019-02-22T11:01:52.876Z,41.73
2019-02-22T11:04:56.083Z,31.13
2019-02-22T11:07:59.325Z,32.17
2019-02-22T11:11:02.791Z,30.70
2019-02-22T11:14:07.622Z,33.07
2019-02-22T11:17:10.610Z,30.10
2019-02-22T11:20:14.237Z,34.00
2019-02-22T11:23:17.907Z,30.13
2019-02-22T11:26:20.987Z,36.20
2019-02-22T11:29:24.236Z,35.20
2019-02-22T11:32:31.014Z,33.13
2019-02-22T11:35:33.960Z,37.60
2019-02-22T11:38:37.495Z,27.53
2019-02-22T11:41:40.735Z,25.70
2019-02-22T11:44:43.691Z,23.20
2019-02-22T11:47:46.928Z,33.47
2019-02-22T11:50:50.135Z,13.97
2019-02-22T11:53:53.404Z,17.40
2019-02-22T11:56:56.605Z,13.23
2019-02-22T11:59:59.562Z,17.40
2019-02-22T12:03:15.870Z,11.10
2019-02-22T12:06:08.059Z,11.47
2019-02-22T12:09:11.401Z,14.50
2019-02-22T12:12:14.845Z,14.20
2019-02-22T12:15:18.212Z,13.37
2019-02-22T12:18:21.538Z,20.63
2019-02-22T12:21:25.423Z,12.30
2019-02-22T12:24:28.680Z,15.43
2019-02-22T12:27:31.628Z,17.13
2019-02-22T12:30:34.616Z,16.03
2019-02-22T12:33:37.680Z,9.97
2019-02-22T12:36:40.917Z,10.27
2019-02-22T12:39:44.511Z,12.77
2019-02-22T12:42:47.454Z,9.93
2019-02-22T12:45:50.414Z,8.83
2019-02-22T12:48:53.352Z,11.80
2019-02-22T12:51:56.893Z,12.03
2019-02-22T12:54:59.852Z,12.50
2019-02-22T12:58:03.072Z,11.93
2019-02-22T13:01:06.043Z,10.10
2019-02-22T13:04:09.028Z,26.23
2019-02-22T13:07:12.081Z,16.30
2019-02-22T13:10:16.183Z,16.13
2019-02-22T13:13:19.141Z,16.20
2019-02-22T13:16:22.100Z,23.90
2019-02-22T13:19:25.415Z,14.17
2019-02-22T13:22:28.715Z,22.50
2019-02-22T13:25:31.967Z,14.23
2019-02-22T13:28:34.900Z,19.50
2019-02-22T13:31:37.878Z,17.67
2019-02-22T13:34:41.898Z,14.93
2019-02-22T13:37:44.956Z,18.23
2019-02-22T13:40:49.691Z,17.20
2019-02-22T13:43:52.827Z,13.20
2019-02-22T13:46:56.075Z,21.60
2019-02-22T13:49:59.543Z,21.27
2019-02-22T13:53:02.505Z,15.47
2019-02-22T13:56:05.811Z,14.70
2019-02-22T13:59:09.031Z,14.47
2019-02-22T14:02:12.253Z,20.80
2019-02-22T14:05:15.640Z,11.80
2019-02-22T14:08:18.878Z,19.50
2019-02-22T14:11:22.137Z,17.87
2019-02-22T14:14:25.769Z,19.90
2019-02-22T14:17:28.723Z,17.00
2019-02-22T14:20:31.949Z,22.13
2019-02-22T14:23:35.561Z,19.37
2019-02-22T14:26:38.509Z,21.33
2019-02-22T14:29:42.185Z,32.90
2019-02-22T14:32:45.326Z,18.30
2019-02-22T14:35:48.891Z,19.63
2019-02-22T14:38:51.856Z,22.87
2019-02-22T14:41:54.865Z,20.37
2019-02-22T14:44:58.128Z,14.27
2019-02-22T14:48:01.911Z,27.30
2019-02-22T14:51:05.290Z,25.20
2019-02-22T14:54:08.258Z,25.47
2019-02-22T14:57:13.181Z,24.87
2019-02-22T15:00:18.066Z,18.30
2019-02-22T15:03:21.127Z,39.27
2019-02-22T15:06:24.734Z,17.03
2019-02-22T15:09:27.744Z,16.90
2019-02-22T15:12:31.039Z,25.00
2019-02-22T15:16:00.960Z,17.13
2019-02-22T15:19:11.236Z,18.50
2019-02-22T15:22:14.759Z,21.30
2019-02-22T15:25:18.028Z,29.13
2019-02-22T15:28:21.009Z,18.33
2019-02-22T15:31:24.073Z,14.00
2019-02-22T15:34:27.047Z,21.10
2019-02-22T15:37:30.033Z,14.40
2019-02-22T15:40:33.051Z,11.57
2019-02-22T15:43:36.107Z,17.53
2019-02-22T15:46:39.642Z,21.33
2019-02-22T15:49:43.135Z,23.03
2019-02-22T15:52:47.465Z,14.10
2019-02-22T15:55:51.165Z,22.43
2019-02-22T15:58:54.366Z,20.73
2019-02-22T16:01:57.598Z,19.43
2019-02-22T16:05:05.049Z,21.93
2019-02-22T16:08:09.020Z,16.50
2019-02-22T16:11:12.323Z,22.57
2019-02-22T16:14:15.590Z,25.13
2019-02-22T16:17:18.817Z,25.93
2019-02-22T16:20:21.781Z,25.73
2019-02-22T16:23:24.730Z,18.67
2019-02-22T16:26:30.005Z,25.33
2019-02-22T16:29:33.638Z,20.90
2019-02-22T16:32:36.887Z,22.47
2019-02-22T16:35:40.144Z,22.53
2019-02-22T16:38:43.117Z,22.93
2019-02-22T16:41:46.094Z,22.93
2019-02-22T16:44:49.095Z,22.57
2019-02-22T16:47:52.364Z,20.33
2019-02-22T16:50:55.443Z,20.77
2019-02-22T16:53:58.679Z,18.70
2019-02-22T16:57:02.025Z,18.77
2019-02-22T17:00:05.896Z,27.43
2019-02-22T17:03:11.040Z,20.20
2019-02-22T17:06:14.682Z,21.37
2019-02-22T17:09:18.056Z,22.43
2019-02-22T17:12:21.135Z,27.63
2019-02-22T17:15:24.420Z,23.07
2019-02-22T17:18:27.383Z,22.47
2019-02-22T17:21:30.873Z,28.60
2019-02-22T17:24:34.145Z,23.17
2019-02-22T17:27:37.104Z,24.93
2019-02-22T17:30:40.344Z,19.00
2019-02-22T17:33:43.688Z,26.17
2019-02-22T17:36:46.915Z,25.40
2019-02-22T17:39:50.207Z,22.07
2019-02-22T17:42:53.137Z,29.27
2019-02-22T17:45:56.629Z,28.37
2019-02-22T17:49:00.385Z,31.77
2019-02-22T17:52:03.874Z,29.07
2019-02-22T17:55:07.713Z,31.97
2019-02-22T17:58:11.525Z,24.57
2019-02-22T18:01:15.042Z,36.73
2019-02-22T18:04:18.284Z,28.77
2019-02-22T18:07:21.246Z,26.67
2019-02-22T18:10:24.513Z,37.27
2019-02-22T18:13:28.190Z,33.40
2019-02-22T18:16:31.144Z,29.50
2019-02-22T18:19:34.103Z,34.77
2019-02-22T18:22:37.436Z,32.60
2019-02-22T18:25:40.401Z,32.53
2019-02-22T18:28:44.081Z,27.70
2019-02-22T18:31:47.657Z,22.73
2019-02-22T18:34:50.585Z,32.27
2019-02-22T18:37:54.159Z,23.80
2019-02-22T18:40:57.403Z,27.97
2019-02-22T18:44:00.602Z,26.83
2019-02-22T18:47:03.585Z,25.87
2019-02-22T18:50:07.530Z,28.37
2019-02-22T18:53:10.845Z,22.53
2019-02-22T18:56:14.122Z,29.77
2019-02-22T18:59:17.065Z,21.40
2019-02-22T19:02:20.325Z,30.83
2019-02-22T19:05:23.691Z,35.77
2019-02-22T19:08:32.513Z,25.90
2019-02-22T19:11:31.883Z,24.97
2019-02-22T19:14:35.145Z,30.07
2019-02-22T19:17:38.130Z,35.60
2019-02-22T19:20:41.339Z,21.43
2019-02-22T19:23:44.466Z,25.33
2019-02-22T19:26:47.421Z,21.97
2019-02-22T19:29:50.608Z,28.37
2019-02-22T19:32:53.679Z,22.00
2019-02-22T19:35:56.888Z,27.07
2019-02-22T19:39:00.439Z,23.57
2019-02-22T19:42:03.992Z,25.93
2019-02-22T19:45:07.793Z,26.87
2019-02-22T19:48:11.081Z,23.80
2019-02-22T19:51:14.308Z,25.53
2019-02-22T19:54:17.563Z,22.23
2019-02-22T19:57:20.548Z,24.80
2019-02-22T20:00:23.735Z,19.57
2019-02-22T20:03:27.585Z,20.33
2019-02-22T20:06:30.915Z,21.87
2019-02-22T20:09:34.433Z,22.63
2019-02-22T20:12:37.511Z,22.13
2019-02-22T20:15:40.852Z,19.37
2019-02-22T20:18:44.095Z,20.97
2019-02-22T20:21:47.757Z,19.50
2019-02-22T20:24:51.034Z,26.43
2019-02-22T20:27:53.989Z,22.57
2019-02-22T20:30:57.215Z,22.53
2019-02-22T20:34:00.405Z,16.77
2019-02-22T20:37:03.872Z,18.33
2019-02-22T20:40:07.608Z,17.33
2019-02-22T20:43:10.966Z,36.50
2019-02-22T20:46:14.317Z,20.93
2019-02-22T20:49:17.821Z,25.63
2019-02-22T20:52:20.905Z,18.93
2019-02-22T20:55:25.434Z,21.63
2019-02-22T20:58:28.928Z,22.33
2019-02-22T21:01:31.886Z,15.80
2019-02-22T21:04:35.174Z,17.87
2019-02-22T21:07:38.787Z,24.57
2019-02-22T21:10:41.761Z,21.87
2019-02-22T21:13:45.674Z,15.33
2019-02-22T21:16:48.622Z,16.57
2019-02-22T21:19:52.267Z,19.00
2019-02-22T21:22:55.548Z,26.70
2019-02-22T21:25:58.531Z,17.37
2019-02-22T21:29:01.838Z,16.70
2019-02-22T21:32:04.801Z,16.70
2019-02-22T21:35:08.360Z,14.57
2019-02-22T21:38:12.225Z,20.97
2019-02-22T21:41:16.444Z,18.17
2019-02-22T21:44:20.948Z,27.10
2019-02-22T21:47:24.070Z,20.13
2019-02-22T21:50:27.073Z,20.33
2019-02-22T21:53:30.669Z,22.13
2019-02-22T21:56:33.887Z,22.73
2019-02-22T21:59:37.243Z,13.77
2019-02-22T22:02:40.815Z,28.70
2019-02-22T22:05:44.586Z,14.43
2019-02-22T22:08:48.129Z,17.33
2019-02-22T22:11:51.735Z,23.10
2019-02-22T22:14:54.764Z,17.90
2019-02-22T22:17:58.259Z,22.53
2019-02-22T22:21:02.217Z,24.43
2019-02-22T22:24:05.171Z,14.40
2019-02-22T22:27:08.162Z,14.43
2019-02-22T22:30:11.489Z,23.03
2019-02-22T22:33:14.686Z,22.03
2019-02-22T22:36:17.930Z,18.00
2019-02-22T22:39:20.892Z,16.60
2019-02-22T22:42:23.839Z,17.87
2019-02-22T22:45:27.897Z,18.73
2019-02-22T22:48:31.553Z,14.30
2019-02-22T22:51:34.849Z,14.53
2019-02-22T22:54:38.143Z,15.83
2019-02-22T22:57:41.381Z,12.80
2019-02-22T23:01:07.787Z,16.23
2019-02-22T23:04:11.702Z,14.20
2019-02-22T23:07:15.073Z,16.33
2019-02-22T23:10:18.226Z,18.03
2019-02-22T23:13:21.290Z,11.97
2019-02-22T23:16:24.681Z,18.33
2019-02-22T23:19:28.252Z,15.70
2019-02-22T23:22:31.538Z,15.87
2019-02-22T23:25:34.474Z,18.23
2019-02-22T23:28:37.556Z,21.10
2019-02-22T23:31:40.616Z,21.83
2019-02-22T23:34:43.839Z,16.03
2019-02-22T23:37:48.078Z,12.33
2019-02-22T23:40:51.334Z,19.57
2019-02-22T23:43:54.541Z,14.83
2019-02-22T23:46:57.517Z,13.10
2019-02-22T23:50:00.722Z,16.00
2019-02-22T23:53:03.681Z,14.53
2019-02-22T23:56:06.951Z,15.20
2019-02-22T23:59:10.273Z,14.37
